sensor_id;sensor_type;location;lat;lon;timestamp;P1;durP1;ratioP1;P2;durP2;ratioP2
40729;SDS011;26418;50.070;8.436;2024-02-14T00:02:07;2.13;;;1.33;;
40729;SDS011;26418;50.070;8.436;2024-02-14T00:04:32;4.78;;;1.85;;
40729;SDS011;26418;50.070;8.436;2024-02-14T00:06:58;3.97;;;1.48;;
40729;SDS011;26418;50.070;8.436;2024-02-14T00:09:24;3.67;;;1.40;;
40729;SDS011;26418;50.070;8.436;2024-02-14T00:11:50;4.18;;;1.27;;
40729;SDS011;26418;50.070;8.436;2024-02-14T00:14:16;3.15;;;1.75;;
40729;SDS011;26418;50.070;8.436;2024-02-14T00:16:44;1.95;;;1.17;;
40729;SDS011;26418;50.070;8.436;2024-02-14T00:19:10;5.20;;;1.75;;
40729;SDS011;26418;50.070;8.436;2024-02-14T00:21:35;2.08;;;1.08;;
40729;SDS011;26418;50.070;8.436;2024-02-14T00:24:01;2.53;;;1.30;;
40729;SDS011;26418;50.070;8.436;2024-02-14T00:26:27;3.47;;;0.93;;
40729;SDS011;26418;50.070;8.436;2024-02-14T00:28:52;2.58;;;1.40;;
40729;SDS011;26418;50.070;8.436;2024-02-14T00:31:18;5.75;;;1.67;;
40729;SDS011;26418;50.070;8.436;2024-02-14T00:33:43;3.70;;;1.40;;
40729;SDS011;26418;50.070;8.436;2024-02-14T00:36:11;3.50;;;1.42;;
40729;SDS011;26418;50.070;8.436;2024-02-14T00:38:37;6.28;;;1.52;;
40729;SDS011;26418;50.070;8.436;2024-02-14T00:41:02;4.68;;;1.65;;
40729;SDS011;26418;50.070;8.436;2024-02-14T00:43:28;4.07;;;1.50;;
40729;SDS011;26418;50.070;8.436;2024-02-14T00:45:54;3.38;;;1.60;;
40729;SDS011;26418;50.070;8.436;2024-02-14T00:48:21;5.60;;;1.83;;
40729;SDS011;26418;50.070;8.436;2024-02-14T00:50:47;6.68;;;2.35;;
40729;SDS011;26418;50.070;8.436;2024-02-14T00:53:13;6.22;;;2.42;;
40729;SDS011;26418;50.070;8.436;2024-02-14T00:55:39;2.78;;;1.73;;
40729;SDS011;26418;50.070;8.436;2024-02-14T00:58:05;3.85;;;1.85;;
40729;SDS011;26418;50.070;8.436;2024-02-14T01:00:30;6.05;;;2.13;;
40729;SDS011;26418;50.070;8.436;2024-02-14T01:02:57;5.68;;;1.73;;
40729;SDS011;26418;50.070;8.436;2024-02-14T01:05:23;6.53;;;2.30;;
40729;SDS011;26418;50.070;8.436;2024-02-14T01:07:49;4.28;;;1.95;;
40729;SDS011;26418;50.070;8.436;2024-02-14T01:10:14;2.38;;;1.85;;
40729;SDS011;26418;50.070;8.436;2024-02-14T01:12:40;5.47;;;2.05;;
40729;SDS011;26418;50.070;8.436;2024-02-14T01:15:06;5.15;;;2.40;;
40729;SDS011;26418;50.070;8.436;2024-02-14T01:17:31;4.30;;;2.20;;
40729;SDS011;26418;50.070;8.436;2024-02-14T01:19:58;4.80;;;1.73;;
40729;SDS011;26418;50.070;8.436;2024-02-14T01:22:24;5.43;;;2.20;;
40729;SDS011;26418;50.070;8.436;2024-02-14T01:24:49;4.07;;;2.25;;
40729;SDS011;26418;50.070;8.436;2024-02-14T01:27:15;4.10;;;2.60;;
40729;SDS011;26418;50.070;8.436;2024-02-14T01:29:41;5.28;;;2.60;;
40729;SDS011;26418;50.070;8.436;2024-02-14T01:32:07;5.53;;;3.60;;
40729;SDS011;26418;50.070;8.436;2024-02-14T01:34:34;6.93;;;3.03;;
40729;SDS011;26418;50.070;8.436;2024-02-14T01:37:00;5.05;;;3.85;;
40729;SDS011;26418;50.070;8.436;2024-02-14T01:39:26;7.05;;;3.97;;
40729;SDS011;26418;50.070;8.436;2024-02-14T01:41:51;8.25;;;3.70;;
40729;SDS011;26418;50.070;8.436;2024-02-14T01:44:17;7.47;;;3.67;;
40729;SDS011;26418;50.070;8.436;2024-02-14T01:46:46;8.15;;;3.50;;
40729;SDS011;26418;50.070;8.436;2024-02-14T01:49:12;6.30;;;3.20;;
40729;SDS011;26418;50.070;8.436;2024-02-14T01:51:38;7.70;;;3.65;;
40729;SDS011;26418;50.070;8.436;2024-02-14T01:54:07;7.15;;;3.17;;
40729;SDS011;26418;50.070;8.436;2024-02-14T01:56:33;6.53;;;3.17;;
40729;SDS011;26418;50.070;8.436;2024-02-14T01:58:59;6.18;;;3.35;;
40729;SDS011;26418;50.070;8.436;2024-02-14T02:01:26;7.15;;;3.40;;
40729;SDS011;26418;50.070;8.436;2024-02-14T02:03:51;4.57;;;3.40;;
40729;SDS011;26418;50.070;8.436;2024-02-14T02:06:17;6.63;;;2.95;;
40729;SDS011;26418;50.070;8.436;2024-02-14T02:08:43;7.55;;;3.80;;
40729;SDS011;26418;50.070;8.436;2024-02-14T02:11:09;8.32;;;3.10;;
40729;SDS011;26418;50.070;8.436;2024-02-14T02:13:35;9.88;;;3.67;;
40729;SDS011;26418;50.070;8.436;2024-02-14T02:16:01;8.13;;;3.45;;
40729;SDS011;26418;50.070;8.436;2024-02-14T02:18:30;4.50;;;3.33;;
40729;SDS011;26418;50.070;8.436;2024-02-14T02:20:58;5.03;;;3.45;;
40729;SDS011;26418;50.070;8.436;2024-02-14T02:23:24;4.65;;;3.50;;
40729;SDS011;26418;50.070;8.436;2024-02-14T02:25:50;7.25;;;3.75;;
40729;SDS011;26418;50.070;8.436;2024-02-14T02:28:16;4.85;;;3.35;;
40729;SDS011;26418;50.070;8.436;2024-02-14T02:30:42;6.90;;;3.28;;
40729;SDS011;26418;50.070;8.436;2024-02-14T02:33:07;6.70;;;3.50;;
40729;SDS011;26418;50.070;8.436;2024-02-14T02:35:33;6.95;;;3.20;;
40729;SDS011;26418;50.070;8.436;2024-02-14T02:38:00;7.10;;;3.38;;
40729;SDS011;26418;50.070;8.436;2024-02-14T02:40:25;7.97;;;3.95;;
40729;SDS011;26418;50.070;8.436;2024-02-14T02:42:54;8.18;;;4.53;;
40729;SDS011;26418;50.070;8.436;2024-02-14T02:45:20;9.30;;;4.07;;
40729;SDS011;26418;50.070;8.436;2024-02-14T02:47:46;7.95;;;4.05;;
40729;SDS011;26418;50.070;8.436;2024-02-14T02:50:12;7.78;;;4.00;;
40729;SDS011;26418;50.070;8.436;2024-02-14T02:52:38;8.07;;;4.28;;
40729;SDS011;26418;50.070;8.436;2024-02-14T02:55:05;7.55;;;4.00;;
40729;SDS011;26418;50.070;8.436;2024-02-14T02:57:31;6.05;;;4.07;;
40729;SDS011;26418;50.070;8.436;2024-02-14T02:59:58;8.73;;;4.20;;
40729;SDS011;26418;50.070;8.436;2024-02-14T03:02:24;7.10;;;4.43;;
40729;SDS011;26418;50.070;8.436;2024-02-14T03:04:50;7.80;;;4.00;;
40729;SDS011;26418;50.070;8.436;2024-02-14T03:07:18;10.52;;;4.18;;
40729;SDS011;26418;50.070;8.436;2024-02-14T03:09:44;9.63;;;4.43;;
40729;SDS011;26418;50.070;8.436;2024-02-14T03:12:10;6.32;;;3.50;;
40729;SDS011;26418;50.070;8.436;2024-02-14T03:14:35;7.05;;;3.92;;
40729;SDS011;26418;50.070;8.436;2024-02-14T03:17:04;8.27;;;4.00;;
40729;SDS011;26418;50.070;8.436;2024-02-14T03:19:30;6.85;;;3.95;;
40729;SDS011;26418;50.070;8.436;2024-02-14T03:21:56;7.70;;;4.13;;
40729;SDS011;26418;50.070;8.436;2024-02-14T03:24:22;6.30;;;3.85;;
40729;SDS011;26418;50.070;8.436;2024-02-14T03:26:50;8.70;;;4.05;;
40729;SDS011;26418;50.070;8.436;2024-02-14T03:29:18;10.00;;;3.60;;
40729;SDS011;26418;50.070;8.436;2024-02-14T03:31:45;7.65;;;4.10;;
40729;SDS011;26418;50.070;8.436;2024-02-14T03:34:11;5.63;;;3.38;;
40729;SDS011;26418;50.070;8.436;2024-02-14T03:36:37;7.07;;;4.22;;
40729;SDS011;26418;50.070;8.436;2024-02-14T03:39:03;7.38;;;3.53;;
40729;SDS011;26418;50.070;8.436;2024-02-14T03:41:30;7.80;;;3.78;;
40729;SDS011;26418;50.070;8.436;2024-02-14T03:43:56;8.73;;;3.63;;
40729;SDS011;26418;50.070;8.436;2024-02-14T03:46:26;7.63;;;3.78;;
40729;SDS011;26418;50.070;8.436;2024-02-14T03:48:53;6.75;;;3.83;;
40729;SDS011;26418;50.070;8.436;2024-02-14T03:51:24;6.50;;;3.95;;
40729;SDS011;26418;50.070;8.436;2024-02-14T03:53:50;11.10;;;4.30;;
40729;SDS011;26418;50.070;8.436;2024-02-14T03:56:16;7.90;;;3.70;;
40729;SDS011;26418;50.070;8.436;2024-02-14T03:58:42;8.57;;;4.07;;
40729;SDS011;26418;50.070;8.436;2024-02-14T04:01:08;8.40;;;4.22;;
40729;SDS011;26418;50.070;8.436;2024-02-14T04:03:34;9.13;;;4.40;;
40729;SDS011;26418;50.070;8.436;2024-02-14T04:05:59;11.30;;;5.45;;
40729;SDS011;26418;50.070;8.436;2024-02-14T04:08:25;8.82;;;4.57;;
40729;SDS011;26418;50.070;8.436;2024-02-14T04:10:51;10.85;;;4.20;;
40729;SDS011;26418;50.070;8.436;2024-02-14T04:13:19;8.05;;;4.07;;
40729;SDS011;26418;50.070;8.436;2024-02-14T04:15:45;10.23;;;4.38;;
40729;SDS011;26418;50.070;8.436;2024-02-14T04:18:12;8.90;;;3.92;;
40729;SDS011;26418;50.070;8.436;2024-02-14T04:20:39;6.65;;;3.70;;
40729;SDS011;26418;50.070;8.436;2024-02-14T04:23:06;5.68;;;3.53;;
40729;SDS011;26418;50.070;8.436;2024-02-14T04:25:32;8.88;;;4.63;;
40729;SDS011;26418;50.070;8.436;2024-02-14T04:27:59;7.18;;;4.47;;
40729;SDS011;26418;50.070;8.436;2024-02-14T04:30:25;8.30;;;4.63;;
40729;SDS011;26418;50.070;8.436;2024-02-14T04:32:51;8.07;;;4.35;;
40729;SDS011;26418;50.070;8.436;2024-02-14T04:35:17;6.28;;;3.65;;
40729;SDS011;26418;50.070;8.436;2024-02-14T04:37:46;7.63;;;4.15;;
40729;SDS011;26418;50.070;8.436;2024-02-14T04:40:13;10.45;;;4.53;;
40729;SDS011;26418;50.070;8.436;2024-02-14T04:42:39;9.20;;;5.85;;
40729;SDS011;26418;50.070;8.436;2024-02-14T04:45:05;18.85;;;10.50;;
40729;SDS011;26418;50.070;8.436;2024-02-14T04:47:31;23.13;;;14.00;;
40729;SDS011;26418;50.070;8.436;2024-02-14T04:49:57;18.75;;;11.45;;
40729;SDS011;26418;50.070;8.436;2024-02-14T04:52:23;13.98;;;8.32;;
40729;SDS011;26418;50.070;8.436;2024-02-14T04:54:49;9.40;;;5.97;;
40729;SDS011;26418;50.070;8.436;2024-02-14T04:57:14;10.68;;;5.13;;
40729;SDS011;26418;50.070;8.436;2024-02-14T04:59:40;8.73;;;5.78;;
40729;SDS011;26418;50.070;8.436;2024-02-14T05:02:06;10.00;;;5.22;;
40729;SDS011;26418;50.070;8.436;2024-02-14T05:04:32;12.20;;;5.15;;
40729;SDS011;26418;50.070;8.436;2024-02-14T05:07:00;10.60;;;5.25;;
40729;SDS011;26418;50.070;8.436;2024-02-14T05:09:26;7.85;;;4.95;;
40729;SDS011;26418;50.070;8.436;2024-02-14T05:11:51;8.38;;;4.50;;
40729;SDS011;26418;50.070;8.436;2024-02-14T05:14:17;9.68;;;4.68;;
40729;SDS011;26418;50.070;8.436;2024-02-14T05:16:43;10.20;;;4.70;;
40729;SDS011;26418;50.070;8.436;2024-02-14T05:19:08;8.93;;;5.13;;
40729;SDS011;26418;50.070;8.436;2024-02-14T05:21:34;8.95;;;5.40;;
40729;SDS011;26418;50.070;8.436;2024-02-14T05:24:00;9.70;;;5.07;;
40729;SDS011;26418;50.070;8.436;2024-02-14T05:26:26;11.32;;;4.47;;
40729;SDS011;26418;50.070;8.436;2024-02-14T05:28:52;8.98;;;4.80;;
40729;SDS011;26418;50.070;8.436;2024-02-14T05:31:17;11.40;;;5.28;;
40729;SDS011;26418;50.070;8.436;2024-02-14T05:33:43;8.95;;;4.80;;
40729;SDS011;26418;50.070;8.436;2024-02-14T05:36:09;8.25;;;4.80;;
40729;SDS011;26418;50.070;8.436;2024-02-14T05:38:35;9.45;;;4.60;;
40729;SDS011;26418;50.070;8.436;2024-02-14T05:41:01;7.30;;;4.63;;
40729;SDS011;26418;50.070;8.436;2024-02-14T05:43:26;8.73;;;4.75;;
40729;SDS011;26418;50.070;8.436;2024-02-14T05:45:52;8.05;;;4.65;;
40729;SDS011;26418;50.070;8.436;2024-02-14T05:48:19;8.38;;;4.97;;
40729;SDS011;26418;50.070;8.436;2024-02-14T05:50:45;8.90;;;4.55;;
40729;SDS011;26418;50.070;8.436;2024-02-14T05:53:10;8.90;;;4.78;;
40729;SDS011;26418;50.070;8.436;2024-02-14T05:55:37;9.82;;;4.65;;
40729;SDS011;26418;50.070;8.436;2024-02-14T05:58:03;10.07;;;4.35;;
40729;SDS011;26418;50.070;8.436;2024-02-14T06:00:29;6.78;;;4.15;;
40729;SDS011;26418;50.070;8.436;2024-02-14T06:02:58;7.55;;;4.63;;
40729;SDS011;26418;50.070;8.436;2024-02-14T06:05:23;7.18;;;4.18;;
40729;SDS011;26418;50.070;8.436;2024-02-14T06:07:49;6.60;;;3.83;;
40729;SDS011;26418;50.070;8.436;2024-02-14T06:10:15;10.48;;;3.95;;
40729;SDS011;26418;50.070;8.436;2024-02-14T06:12:42;7.95;;;4.05;;
40729;SDS011;26418;50.070;8.436;2024-02-14T06:15:09;6.72;;;4.00;;
40729;SDS011;26418;50.070;8.436;2024-02-14T06:17:35;7.57;;;4.30;;
40729;SDS011;26418;50.070;8.436;2024-02-14T06:20:00;7.75;;;4.00;;
40729;SDS011;26418;50.070;8.436;2024-02-14T06:22:31;7.07;;;3.33;;
40729;SDS011;26418;50.070;8.436;2024-02-14T06:24:57;8.10;;;4.63;;
40729;SDS011;26418;50.070;8.436;2024-02-14T06:27:23;12.48;;;4.65;;
40729;SDS011;26418;50.070;8.436;2024-02-14T06:29:49;6.78;;;4.03;;
40729;SDS011;26418;50.070;8.436;2024-02-14T06:32:14;6.10;;;4.07;;
40729;SDS011;26418;50.070;8.436;2024-02-14T06:34:40;10.38;;;4.20;;
40729;SDS011;26418;50.070;8.436;2024-02-14T06:37:05;4.90;;;3.58;;
40729;SDS011;26418;50.070;8.436;2024-02-14T06:39:31;5.80;;;3.92;;
40729;SDS011;26418;50.070;8.436;2024-02-14T06:41:57;7.47;;;3.67;;
40729;SDS011;26418;50.070;8.436;2024-02-14T06:44:22;8.57;;;4.30;;
40729;SDS011;26418;50.070;8.436;2024-02-14T06:46:48;8.00;;;3.83;;
40729;SDS011;26418;50.070;8.436;2024-02-14T06:49:15;8.82;;;3.78;;
40729;SDS011;26418;50.070;8.436;2024-02-14T06:51:41;6.32;;;3.95;;
40729;SDS011;26418;50.070;8.436;2024-02-14T06:54:07;7.20;;;4.28;;
40729;SDS011;26418;50.070;8.436;2024-02-14T06:56:33;6.78;;;3.65;;
40729;SDS011;26418;50.070;8.436;2024-02-14T06:58:58;6.47;;;4.03;;
40729;SDS011;26418;50.070;8.436;2024-02-14T07:01:28;8.38;;;4.20;;
40729;SDS011;26418;50.070;8.436;2024-02-14T07:03:54;7.13;;;4.05;;
40729;SDS011;26418;50.070;8.436;2024-02-14T07:06:20;8.32;;;3.97;;
40729;SDS011;26418;50.070;8.436;2024-02-14T07:08:46;6.13;;;3.92;;
40729;SDS011;26418;50.070;8.436;2024-02-14T07:11:12;9.52;;;4.18;;
40729;SDS011;26418;50.070;8.436;2024-02-14T07:13:38;7.55;;;3.70;;
40729;SDS011;26418;50.070;8.436;2024-02-14T07:16:04;9.60;;;4.18;;
40729;SDS011;26418;50.070;8.436;2024-02-14T07:18:29;9.20;;;2.88;;
40729;SDS011;26418;50.070;8.436;2024-02-14T07:20:55;8.48;;;3.17;;
40729;SDS011;26418;50.070;8.436;2024-02-14T07:23:21;7.00;;;3.92;;
40729;SDS011;26418;50.070;8.436;2024-02-14T07:25:46;13.43;;;3.80;;
40729;SDS011;26418;50.070;8.436;2024-02-14T07:28:12;11.00;;;4.78;;
40729;SDS011;26418;50.070;8.436;2024-02-14T07:30:37;8.48;;;3.65;;
40729;SDS011;26418;50.070;8.436;2024-02-14T07:33:03;7.63;;;4.07;;
40729;SDS011;26418;50.070;8.436;2024-02-14T07:35:29;8.32;;;4.13;;
40729;SDS011;26418;50.070;8.436;2024-02-14T07:37:55;12.85;;;4.22;;
40729;SDS011;26418;50.070;8.436;2024-02-14T07:40:21;6.30;;;4.20;;
40729;SDS011;26418;50.070;8.436;2024-02-14T07:42:47;7.45;;;3.97;;
40729;SDS011;26418;50.070;8.436;2024-02-14T07:45:12;8.32;;;4.03;;
40729;SDS011;26418;50.070;8.436;2024-02-14T07:47:38;8.77;;;3.85;;
40729;SDS011;26418;50.070;8.436;2024-02-14T07:50:05;6.57;;;3.78;;
40729;SDS011;26418;50.070;8.436;2024-02-14T07:52:32;5.25;;;2.92;;
40729;SDS011;26418;50.070;8.436;2024-02-14T07:54:57;8.13;;;3.58;;
40729;SDS011;26418;50.070;8.436;2024-02-14T07:57:23;7.57;;;3.60;;
40729;SDS011;26418;50.070;8.436;2024-02-14T07:59:50;11.80;;;4.05;;
40729;SDS011;26418;50.070;8.436;2024-02-14T08:02:16;9.32;;;4.00;;
40729;SDS011;26418;50.070;8.436;2024-02-14T08:04:42;6.50;;;3.40;;
40729;SDS011;26418;50.070;8.436;2024-02-14T08:07:08;6.85;;;3.13;;
40729;SDS011;26418;50.070;8.436;2024-02-14T08:09:35;7.28;;;3.05;;
40729;SDS011;26418;50.070;8.436;2024-02-14T08:12:01;8.45;;;3.25;;
40729;SDS011;26418;50.070;8.436;2024-02-14T08:14:26;7.28;;;3.33;;
40729;SDS011;26418;50.070;8.436;2024-02-14T08:16:52;8.27;;;3.63;;
40729;SDS011;26418;50.070;8.436;2024-02-14T08:19:18;5.25;;;2.55;;
40729;SDS011;26418;50.070;8.436;2024-02-14T08:21:44;6.45;;;2.53;;
40729;SDS011;26418;50.070;8.436;2024-02-14T08:24:10;6.00;;;2.92;;
40729;SDS011;26418;50.070;8.436;2024-02-14T08:26:35;9.40;;;3.05;;
40729;SDS011;26418;50.070;8.436;2024-02-14T08:29:01;4.80;;;2.80;;
40729;SDS011;26418;50.070;8.436;2024-02-14T08:31:28;8.23;;;2.85;;
40729;SDS011;26418;50.070;8.436;2024-02-14T08:33:54;4.35;;;2.10;;
40729;SDS011;26418;50.070;8.436;2024-02-14T08:36:20;9.00;;;2.92;;
40729;SDS011;26418;50.070;8.436;2024-02-14T08:38:45;11.10;;;2.67;;
40729;SDS011;26418;50.070;8.436;2024-02-14T08:41:11;5.10;;;2.10;;
40729;SDS011;26418;50.070;8.436;2024-02-14T08:43:37;3.40;;;2.13;;
40729;SDS011;26418;50.070;8.436;2024-02-14T08:46:03;3.80;;;1.83;;
40729;SDS011;26418;50.070;8.436;2024-02-14T08:48:28;5.10;;;2.17;;
40729;SDS011;26418;50.070;8.436;2024-02-14T08:50:57;4.03;;;2.22;;
40729;SDS011;26418;50.070;8.436;2024-02-14T08:53:23;4.95;;;2.00;;
40729;SDS011;26418;50.070;8.436;2024-02-14T08:55:49;4.60;;;2.13;;
40729;SDS011;26418;50.070;8.436;2024-02-14T08:58:14;3.15;;;2.10;;
40729;SDS011;26418;50.070;8.436;2024-02-14T09:00:40;4.68;;;2.35;;
40729;SDS011;26418;50.070;8.436;2024-02-14T09:03:06;4.40;;;2.22;;
40729;SDS011;26418;50.070;8.436;2024-02-14T09:05:31;2.75;;;1.88;;
40729;SDS011;26418;50.070;8.436;2024-02-14T09:07:57;9.27;;;2.47;;
40729;SDS011;26418;50.070;8.436;2024-02-14T09:10:23;5.60;;;2.55;;
40729;SDS011;26418;50.070;8.436;2024-02-14T09:12:48;4.07;;;2.80;;
40729;SDS011;26418;50.070;8.436;2024-02-14T09:15:14;6.15;;;2.33;;
40729;SDS011;26418;50.070;8.436;2024-02-14T09:17:40;4.78;;;2.15;;
40729;SDS011;26418;50.070;8.436;2024-02-14T09:20:07;6.43;;;2.50;;
40729;SDS011;26418;50.070;8.436;2024-02-14T09:22:37;5.10;;;2.33;;
40729;SDS011;26418;50.070;8.436;2024-02-14T09:25:03;5.50;;;2.60;;
40729;SDS011;26418;50.070;8.436;2024-02-14T09:27:30;4.72;;;2.50;;
40729;SDS011;26418;50.070;8.436;2024-02-14T09:29:56;2.90;;;1.77;;
40729;SDS011;26418;50.070;8.436;2024-02-14T09:32:21;6.60;;;2.03;;
40729;SDS011;26418;50.070;8.436;2024-02-14T09:34:47;3.33;;;2.00;;
40729;SDS011;26418;50.070;8.436;2024-02-14T09:37:12;4.75;;;2.40;;
40729;SDS011;26418;50.070;8.436;2024-02-14T09:39:38;4.28;;;2.35;;
40729;SDS011;26418;50.070;8.436;2024-02-14T09:42:08;7.15;;;2.55;;
40729;SDS011;26418;50.070;8.436;2024-02-14T09:47:03;3.28;;;2.30;;
40729;SDS011;26418;50.070;8.436;2024-02-14T09:49:31;9.85;;;2.90;;
40729;SDS011;26418;50.070;8.436;2024-02-14T09:51:58;6.15;;;2.38;;
40729;SDS011;26418;50.070;8.436;2024-02-14T09:54:27;4.53;;;2.80;;
40729;SDS011;26418;50.070;8.436;2024-02-14T09:56:56;7.90;;;3.13;;
40729;SDS011;26418;50.070;8.436;2024-02-14T09:59:23;6.25;;;3.53;;
40729;SDS011;26418;50.070;8.436;2024-02-14T10:01:49;6.50;;;3.25;;
40729;SDS011;26418;50.070;8.436;2024-02-14T10:04:16;6.63;;;3.03;;
40729;SDS011;26418;50.070;8.436;2024-02-14T10:06:44;6.57;;;3.45;;
40729;SDS011;26418;50.070;8.436;2024-02-14T10:09:10;5.65;;;3.28;;
40729;SDS011;26418;50.070;8.436;2024-02-14T10:11:36;5.80;;;2.90;;
40729;SDS011;26418;50.070;8.436;2024-02-14T10:14:04;4.13;;;2.30;;
40729;SDS011;26418;50.070;8.436;2024-02-14T10:16:34;8.52;;;2.95;;
40729;SDS011;26418;50.070;8.436;2024-02-14T10:19:00;7.28;;;3.38;;
40729;SDS011;26418;50.070;8.436;2024-02-14T10:21:26;5.35;;;2.92;;
40729;SDS011;26418;50.070;8.436;2024-02-14T10:23:53;6.47;;;3.08;;
40729;SDS011;26418;50.070;8.436;2024-02-14T10:26:22;5.53;;;3.22;;
40729;SDS011;26418;50.070;8.436;2024-02-14T10:28:48;4.13;;;2.88;;
40729;SDS011;26418;50.070;8.436;2024-02-14T10:31:15;5.38;;;2.35;;
40729;SDS011;26418;50.070;8.436;2024-02-14T10:33:41;4.47;;;2.55;;
40729;SDS011;26418;50.070;8.436;2024-02-14T10:36:07;6.88;;;3.10;;
40729;SDS011;26418;50.070;8.436;2024-02-14T10:38:34;6.40;;;3.17;;
40729;SDS011;26418;50.070;8.436;2024-02-14T10:41:00;6.13;;;2.53;;
40729;SDS011;26418;50.070;8.436;2024-02-14T10:43:27;6.05;;;2.70;;
40729;SDS011;26418;50.070;8.436;2024-02-14T10:45:56;7.43;;;2.75;;
40729;SDS011;26418;50.070;8.436;2024-02-14T10:48:25;3.72;;;2.55;;
40729;SDS011;26418;50.070;8.436;2024-02-14T10:50:58;6.97;;;3.00;;
40729;SDS011;26418;50.070;8.436;2024-02-14T10:53:28;4.85;;;2.40;;
40729;SDS011;26418;50.070;8.436;2024-02-14T10:55:58;4.90;;;2.28;;
40729;SDS011;26418;50.070;8.436;2024-02-14T10:58:24;5.78;;;2.38;;
40729;SDS011;26418;50.070;8.436;2024-02-14T11:00:54;4.15;;;2.28;;
40729;SDS011;26418;50.070;8.436;2024-02-14T11:03:21;4.72;;;2.10;;
40729;SDS011;26418;50.070;8.436;2024-02-14T11:05:47;5.28;;;2.00;;
40729;SDS011;26418;50.070;8.436;2024-02-14T11:08:21;7.03;;;2.45;;
40729;SDS011;26418;50.070;8.436;2024-02-14T11:10:54;5.75;;;1.88;;
40729;SDS011;26418;50.070;8.436;2024-02-14T11:13:26;4.13;;;2.15;;
40729;SDS011;26418;50.070;8.436;2024-02-14T11:16:00;4.15;;;1.90;;
40729;SDS011;26418;50.070;8.436;2024-02-14T11:18:27;1.65;;;1.40;;
40729;SDS011;26418;50.070;8.436;2024-02-14T11:21:04;4.40;;;1.80;;
40729;SDS011;26418;50.070;8.436;2024-02-14T11:23:30;2.83;;;1.23;;
40729;SDS011;26418;50.070;8.436;2024-02-14T11:26:05;4.47;;;1.80;;
40729;SDS011;26418;50.070;8.436;2024-02-14T11:28:36;3.97;;;1.70;;
40729;SDS011;26418;50.070;8.436;2024-02-14T11:31:06;2.08;;;1.13;;
40729;SDS011;26418;50.070;8.436;2024-02-14T11:33:34;3.33;;;1.40;;
40729;SDS011;26418;50.070;8.436;2024-02-14T11:36:00;3.60;;;1.50;;
40729;SDS011;26418;50.070;8.436;2024-02-14T11:38:36;4.25;;;1.40;;
40729;SDS011;26418;50.070;8.436;2024-02-14T11:41:01;3.10;;;1.48;;
40729;SDS011;26418;50.070;8.436;2024-02-14T11:43:28;2.55;;;1.63;;
40729;SDS011;26418;50.070;8.436;2024-02-14T11:45:54;2.33;;;1.20;;
40729;SDS011;26418;50.070;8.436;2024-02-14T11:48:20;4.43;;;2.50;;
40729;SDS011;26418;50.070;8.436;2024-02-14T11:50:46;5.07;;;1.60;;
40729;SDS011;26418;50.070;8.436;2024-02-14T11:53:13;6.75;;;2.67;;
40729;SDS011;26418;50.070;8.436;2024-02-14T11:55:42;5.93;;;2.20;;
40729;SDS011;26418;50.070;8.436;2024-02-14T11:58:11;2.17;;;1.58;;
40729;SDS011;26418;50.070;8.436;2024-02-14T12:00:38;6.68;;;1.70;;
40729;SDS011;26418;50.070;8.436;2024-02-14T12:03:10;3.85;;;1.77;;
40729;SDS011;26418;50.070;8.436;2024-02-14T12:05:37;4.90;;;1.73;;
40729;SDS011;26418;50.070;8.436;2024-02-14T12:08:06;4.35;;;2.38;;
40729;SDS011;26418;50.070;8.436;2024-02-14T12:10:33;3.63;;;2.20;;
40729;SDS011;26418;50.070;8.436;2024-02-14T12:13:09;6.88;;;3.25;;
40729;SDS011;26418;50.070;8.436;2024-02-14T12:15:41;5.50;;;2.97;;
40729;SDS011;26418;50.070;8.436;2024-02-14T12:18:09;5.22;;;2.65;;
40729;SDS011;26418;50.070;8.436;2024-02-14T12:20:35;6.43;;;3.10;;
40729;SDS011;26418;50.070;8.436;2024-02-14T12:23:02;5.63;;;3.10;;
40729;SDS011;26418;50.070;8.436;2024-02-14T12:25:28;6.53;;;2.75;;
40729;SDS011;26418;50.070;8.436;2024-02-14T12:27:54;3.85;;;2.30;;
40729;SDS011;26418;50.070;8.436;2024-02-14T12:30:22;4.70;;;2.50;;
40729;SDS011;26418;50.070;8.436;2024-02-14T12:33:00;3.95;;;2.38;;
40729;SDS011;26418;50.070;8.436;2024-02-14T12:35:34;5.53;;;2.65;;
40729;SDS011;26418;50.070;8.436;2024-02-14T12:38:05;6.03;;;3.17;;
40729;SDS011;26418;50.070;8.436;2024-02-14T12:40:34;5.82;;;2.95;;
40729;SDS011;26418;50.070;8.436;2024-02-14T12:43:00;5.93;;;2.70;;
40729;SDS011;26418;50.070;8.436;2024-02-14T12:45:26;5.13;;;3.20;;
40729;SDS011;26418;50.070;8.436;2024-02-14T12:47:52;4.13;;;3.03;;
40729;SDS011;26418;50.070;8.436;2024-02-14T12:50:18;4.32;;;3.05;;
40729;SDS011;26418;50.070;8.436;2024-02-14T12:52:45;6.85;;;2.80;;
40729;SDS011;26418;50.070;8.436;2024-02-14T12:55:11;4.53;;;3.20;;
40729;SDS011;26418;50.070;8.436;2024-02-14T12:57:37;3.75;;;2.55;;
40729;SDS011;26418;50.070;8.436;2024-02-14T13:00:05;4.65;;;2.47;;
40729;SDS011;26418;50.070;8.436;2024-02-14T13:02:33;13.35;;;3.20;;
40729;SDS011;26418;50.070;8.436;2024-02-14T13:04:59;7.85;;;3.03;;
40729;SDS011;26418;50.070;8.436;2024-02-14T13:07:27;6.88;;;3.80;;
40729;SDS011;26418;50.070;8.436;2024-02-14T13:09:53;5.13;;;2.72;;
40729;SDS011;26418;50.070;8.436;2024-02-14T13:12:20;5.90;;;3.97;;
40729;SDS011;26418;50.070;8.436;2024-02-14T13:14:46;6.22;;;2.88;;
40729;SDS011;26418;50.070;8.436;2024-02-14T13:17:12;8.30;;;3.35;;
40729;SDS011;26418;50.070;8.436;2024-02-14T13:19:37;6.72;;;2.67;;
40729;SDS011;26418;50.070;8.436;2024-02-14T13:22:04;6.57;;;2.65;;
40729;SDS011;26418;50.070;8.436;2024-02-14T13:24:30;3.22;;;2.33;;
40729;SDS011;26418;50.070;8.436;2024-02-14T13:26:56;6.43;;;2.72;;
40729;SDS011;26418;50.070;8.436;2024-02-14T13:29:23;3.53;;;2.40;;
40729;SDS011;26418;50.070;8.436;2024-02-14T13:31:49;4.88;;;2.65;;
40729;SDS011;26418;50.070;8.436;2024-02-14T13:34:18;5.63;;;3.03;;
40729;SDS011;26418;50.070;8.436;2024-02-14T13:36:46;7.60;;;3.17;;
40729;SDS011;26418;50.070;8.436;2024-02-14T13:39:12;8.75;;;2.90;;
40729;SDS011;26418;50.070;8.436;2024-02-14T13:41:39;5.18;;;3.00;;
40729;SDS011;26418;50.070;8.436;2024-02-14T13:44:08;7.65;;;3.30;;
40729;SDS011;26418;50.070;8.436;2024-02-14T13:46:34;7.50;;;2.88;;
40729;SDS011;26418;50.070;8.436;2024-02-14T13:49:01;4.65;;;2.95;;
40729;SDS011;26418;50.070;8.436;2024-02-14T13:51:27;5.97;;;2.80;;
40729;SDS011;26418;50.070;8.436;2024-02-14T13:53:52;4.75;;;3.08;;
40729;SDS011;26418;50.070;8.436;2024-02-14T13:56:18;4.22;;;3.42;;
40729;SDS011;26418;50.070;8.436;2024-02-14T13:58:47;4.72;;;3.28;;
40729;SDS011;26418;50.070;8.436;2024-02-14T14:01:14;7.53;;;3.50;;
40729;SDS011;26418;50.070;8.436;2024-02-14T14:03:40;7.25;;;3.28;;
40729;SDS011;26418;50.070;8.436;2024-02-14T14:06:06;7.00;;;4.25;;
40729;SDS011;26418;50.070;8.436;2024-02-14T14:08:36;12.00;;;5.57;;
40729;SDS011;26418;50.070;8.436;2024-02-14T14:11:02;8.02;;;4.88;;
40729;SDS011;26418;50.070;8.436;2024-02-14T14:13:28;13.93;;;6.00;;
40729;SDS011;26418;50.070;8.436;2024-02-14T14:15:59;9.80;;;4.53;;
40729;SDS011;26418;50.070;8.436;2024-02-14T14:18:25;7.28;;;4.50;;
40729;SDS011;26418;50.070;8.436;2024-02-14T14:20:50;9.98;;;4.07;;
40729;SDS011;26418;50.070;8.436;2024-02-14T14:23:17;8.05;;;4.03;;
40729;SDS011;26418;50.070;8.436;2024-02-14T14:25:43;6.38;;;4.03;;
40729;SDS011;26418;50.070;8.436;2024-02-14T14:28:08;9.52;;;5.00;;
40729;SDS011;26418;50.070;8.436;2024-02-14T14:30:35;9.85;;;4.15;;
40729;SDS011;26418;50.070;8.436;2024-02-14T14:33:01;7.40;;;3.95;;
40729;SDS011;26418;50.070;8.436;2024-02-14T14:35:28;8.45;;;5.10;;
40729;SDS011;26418;50.070;8.436;2024-02-14T14:37:58;7.85;;;4.65;;
40729;SDS011;26418;50.070;8.436;2024-02-14T14:40:33;6.55;;;4.63;;
40729;SDS011;26418;50.070;8.436;2024-02-14T14:42:59;11.40;;;5.43;;
40729;SDS011;26418;50.070;8.436;2024-02-14T14:45:25;8.82;;;5.05;;